This is the latest recevied weather packets stored in our database for station/object N0NAI-13. If no packets are shown the sender has not sent any weather packets the latest 10 day(s).
| Time | Temp. | Humidity | Pressure | Rain* | Wind** | Luminosity | Snow |
|---|---|---|---|---|---|---|---|
| 1777500318 | 15.56° C | 36% | 1018.6 hPa | 0 mm | - | - | - |
| 1777499721 | 14.44° C | 38% | 1018.9 hPa | 0 mm | - | - | - |
| 1777499124 | 14.44° C | 37% | 1018.9 hPa | 0 mm | - | - | - |
| 1777498527 | 15.56° C | 36% | 1018.9 hPa | 0 mm | - | - | - |
| 1777497930 | 15° C | 37% | 1018.9 hPa | 0 mm | - | - | - |
| 1777497327 | 15.56° C | 38% | 1019 hPa | 0 mm | - | - | - |
| 1777496718 | 15° C | 39% | 1019.1 hPa | 0 mm | - | - | - |
| 1777496121 | 13.89° C | 39% | 1019.4 hPa | 0 mm | - | - | - |
| 1777495518 | 15° C | 38% | 1019.4 hPa | 0 mm | - | - | - |
| 1777494915 | 15° C | 38% | 1019.4 hPa | 0 mm | - | - | - |
| 1777494330 | 13.89° C | 39% | 1019.5 hPa | 0 mm | - | - | - |
| 1777493715 | 14.44° C | 39% | 1019.5 hPa | 0 mm | - | - | - |
| 1777493118 | 13.89° C | 39% | 1019.5 hPa | 0 mm | - | - | - |
| 1777492522 | 13.33° C | 40% | 1019.5 hPa | 0 mm | - | - | - |
| 1777491924 | 13.89° C | 39% | 1019.5 hPa | 0 mm | - | - | - |
| 1777491327 | 13.33° C | 39% | 1019.5 hPa | 0 mm | - | - | - |
| 1777490730 | 13.89° C | 37% | 1019.5 hPa | 0 mm | - | - | - |
| 1777490133 | 14.44° C | 37% | 1019.6 hPa | 0 mm | - | - | - |
| 1777489518 | 13.89° C | 41% | 1019.8 hPa | 0 mm | - | - | - |
| 1777488921 | 13.89° C | 41% | 1019.7 hPa | 0 mm | - | - | - |
| 1777488324 | 13.89° C | 41% | 1019.8 hPa | 0 mm | - | - | - |
| 1777487727 | 12.78° C | 41% | 1019.8 hPa | 0 mm | - | - | - |
| 1777487130 | 13.33° C | 42% | 1019.9 hPa | 0 mm | - | - | - |
| 1777486532 | 12.78° C | 43% | 1019.8 hPa | 0 mm | - | - | - |
| 1777485917 | 13.89° C | 41% | 1019.9 hPa | 0 mm | - | - | - |
* Rain latest hour (hover to see other rain measurements)
** Current wind speed in m/s (hover to see current wind gust speed)